EDT,Max TemperatureF,Mean TemperatureF,Min TemperatureF,Max Dew PointF,MeanDew PointF,Min DewpointF,Max Humidity, Mean Humidity, Min Humidity, Max Sea Level PressureIn, Mean Sea Level PressureIn, Min Sea Level PressureIn, Max VisibilityMiles, Mean VisibilityMiles, Min VisibilityMiles, Max Wind SpeedMPH, Mean Wind SpeedMPH, Max Gust SpeedMPH,PrecipitationIn, CloudCover, Events, WindDirDegrees
2012-5-1,51,46,42,43,38,28,93,78,41,30.18,30.12,30.06,10,9,3,12,5,,0.28,8,,63
2012-5-2,53,48,42,45,41,37,87,77,67,30.21,30.18,30.14,10,10,10,8,2,,0.00,8,,101
2012-5-3,53,48,44,48,46,43,93,85,77,30.18,30.14,30.08,10,8,3,8,3,,0.18,8,,193
2012-5-4,62,56,50,55,50,46,94,86,77,30.10,29.96,29.90,10,10,2,10,4,,0.03,8,,139
2012-5-5,66,56,44,54,48,41,94,78,46,30.09,29.99,29.93,10,9,2,15,3,,0.00,5,,4
2012-5-6,69,56,44,46,43,34,93,65,30,30.12,30.08,30.02,10,10,3,10,1,,0.00,4,,219
2012-5-7,71,55,39,46,40,36,93,60,27,30.15,30.09,30.02,10,7,0,14,2,20,0.00,3,,178
2012-5-8,57,52,46,54,47,43,94,83,63,30.07,29.97,29.84,10,10,5,14,7,18,0.80,7,,178
2012-5-9,64,60,55,57,55,54,94,87,77,29.83,29.71,29.60,10,9,3,9,4,,0.01,8,,187
2012-5-10,60,53,44,54,45,37,94,74,51,29.70,29.53,29.43,10,9,3,16,3,24,0.60,7,,264
2012-5-11,64,52,39,39,33,27,93,55,26,30.06,29.86,29.70,10,10,10,20,4,24,0.00,3,,303
2012-5-12,77,54,32,46,37,30,100,57,22,30.18,30.11,30.06,10,9,0,15,2,24,0.00,0,,262
2012-5-13,80,63,46,55,48,43,93,61,28,30.17,30.11,30.04,10,10,4,15,2,21,0.00,1,,211
2012-5-14,68,62,57,61,56,52,94,85,72,30.18,30.14,30.10,10,8,2,12,1,16,0.73,4,,315
2012-5-15,69,64,59,57,56,54,94,82,60,30.14,30.07,29.96,10,8,2,20,5,24,0.24,7,,177
2012-5-16,73,65,57,61,58,55,94,84,65,29.96,29.89,29.78,10,8,0,16,2,22,0.08,7,Thunderstorm,201
2012-5-17,64,53,42,57,38,30,94,59,28,30.17,30.05,29.90,10,10,5,20,5,29,0.00,0,,332
2012-5-18,73,54,35,46,38,34,93,60,23,30.27,30.20,30.14,10,9,0,8,1,,0.00,0,,206
2012-5-19,80,61,42,54,45,39,94,61,28,30.21,30.16,30.10,10,10,2,8,1,,0.00,0,,261
2012-5-20,84,66,48,55,50,46,94,60,30,30.29,30.24,30.18,10,9,1,10,1,17,0.00,0,,164
2012-5-21,73,60,46,63,54,43,93,76,52,30.28,30.20,30.07,10,10,0,10,2,,0.01,4,,155
2012-5-22,69,64,60,59,58,57,88,79,68,30.06,29.94,29.85,10,9,5,8,2,,0.01,7,,53
2012-5-23,78,68,57,63,59,55,94,76,44,30.06,29.93,29.86,10,10,3,14,1,17,0.00,4,,245
2012-5-24,75,68,60,63,61,57,94,79,61,30.23,30.17,30.06,10,9,2,10,3,16,0.00,7,,176
2012-5-25,73,68,62,64,61,57,94,82,69,30.25,30.18,30.09,10,10,3,14,3,18,0.38,7,,194
2012-5-26,84,70,57,66,60,43,94,72,25,30.13,30.09,30.05,10,10,6,14,3,18,0.00,3,,243
2012-5-27,82,66,50,61,54,48,94,64,37,30.21,30.11,30.01,10,9,0,12,2,17,0.00,1,,217
2012-5-28,78,70,64,61,58,55,88,63,51,30.04,29.96,29.88,10,10,8,13,2,,0.00,2,,160
2012-5-29,,,,,,,,,,29.90,29.79,29.66,10,8,2,30,3,36,1.91,5,Thunderstorm,136
2012-5-30,,,,,,,,,,29.76,29.73,29.69,10,8,1,13,2,17,0.08,4,,187
2012-5-31,75,66,57,52,48,37,82,49,29,29.96,29.81,29.74,10,8,0,14,3,18,0.00,3,,345